createdAt,value
2019-05-13T00:01:28.740Z,7.12
2019-05-13T00:06:34.378Z,7.17
2019-05-13T00:11:37.475Z,7.16
2019-05-13T00:16:41.095Z,7.20
2019-05-13T00:21:44.648Z,7.12
2019-05-13T00:26:48.082Z,7.10
2019-05-13T00:31:53.867Z,7.07
2019-05-13T00:37:07.880Z,6.92
2019-05-13T00:42:04.060Z,6.90
2019-05-13T00:47:07.647Z,6.86
2019-05-13T00:52:14.398Z,6.88
2019-05-13T00:57:18.094Z,6.74
2019-05-13T01:02:21.524Z,6.75
2019-05-13T01:07:28.747Z,6.78
2019-05-13T01:12:30.163Z,6.60
2019-05-13T01:17:34.096Z,6.46
2019-05-13T01:22:37.623Z,6.54
2019-05-13T01:27:44.424Z,6.42
2019-05-13T01:32:48.000Z,6.23
2019-05-13T01:37:53.676Z,6.20
2019-05-13T01:42:56.564Z,6.12
2019-05-13T01:47:59.980Z,5.80
2019-05-13T01:53:04.470Z,6.06
2019-05-13T01:58:08.127Z,6.07
2019-05-13T02:03:14.139Z,6.01
2019-05-13T02:08:16.706Z,5.85
2019-05-13T02:13:20.187Z,5.67
2019-05-13T02:18:24.626Z,5.57
2019-05-13T02:23:28.244Z,5.60
2019-05-13T02:28:33.438Z,5.51
2019-05-13T02:33:37.039Z,5.43
2019-05-13T02:38:42.732Z,5.35
2019-05-13T02:43:45.802Z,5.43
2019-05-13T02:48:52.521Z,5.44
2019-05-13T02:53:54.408Z,5.49
2019-05-13T02:58:57.840Z,5.43
2019-05-13T03:04:03.104Z,5.48
2019-05-13T03:09:07.609Z,5.34
2019-05-13T03:14:12.747Z,5.39
2019-05-13T03:19:16.199Z,5.39
2019-05-13T03:24:22.781Z,5.43
2019-05-13T03:29:24.786Z,5.40
2019-05-13T03:34:28.209Z,5.30
2019-05-13T03:39:33.415Z,5.42
2019-05-13T03:44:38.706Z,5.36
2019-05-13T03:49:44.506Z,5.30
2019-05-13T03:54:48.386Z,5.25
2019-05-13T03:59:52.772Z,5.35
2019-05-13T04:04:58.993Z,5.26
2019-05-13T04:10:03.261Z,5.48
2019-05-13T04:15:08.032Z,5.59
2019-05-13T04:20:12.560Z,5.39
2019-05-13T04:25:16.359Z,5.43
2019-05-13T04:30:22.996Z,5.48
2019-05-13T04:35:28.384Z,5.21
2019-05-13T04:40:33.186Z,5.31
2019-05-13T04:45:36.924Z,5.48
2019-05-13T04:50:43.143Z,5.60
2019-05-13T04:55:45.681Z,5.61
2019-05-13T05:01:15.887Z,5.53
2019-05-13T05:06:22.890Z,5.59
2019-05-13T05:11:44.054Z,5.67
2019-05-13T05:16:52.284Z,5.75
2019-05-13T05:22:16.918Z,5.88
2019-05-13T05:27:35.452Z,5.99
2019-05-13T05:32:44.864Z,6.08
2019-05-13T05:38:07.794Z,6.15
2019-05-13T05:43:12.566Z,6.24
2019-05-13T05:48:17.693Z,6.36
2019-05-13T05:53:24.919Z,6.47
2019-05-13T05:58:31.582Z,6.53
2019-05-13T06:03:38.339Z,6.61
2019-05-13T06:08:42.311Z,6.67
2019-05-13T06:13:45.881Z,6.77
2019-05-13T06:18:49.755Z,6.77
2019-05-13T06:23:55.642Z,6.86
2019-05-13T06:28:59.233Z,6.90
2019-05-13T06:34:02.735Z,6.97
2019-05-13T06:39:09.003Z,7.12
2019-05-13T06:44:12.592Z,7.29
2019-05-13T06:49:16.025Z,7.49
2019-05-13T06:54:21.751Z,7.85
2019-05-13T06:59:24.672Z,8.16
2019-05-13T07:04:28.362Z,8.69
2019-05-13T07:09:32.517Z,9.16
2019-05-13T07:14:36.312Z,9.46
2019-05-13T07:19:41.508Z,9.87
2019-05-13T07:24:44.884Z,10.19
2019-05-13T07:29:53.597Z,10.81
2019-05-13T07:34:56.365Z,10.99
2019-05-13T07:40:02.355Z,11.47
2019-05-13T07:45:06.516Z,11.78
2019-05-13T07:50:12.695Z,12.04
2019-05-13T07:55:15.810Z,12.62
2019-05-13T08:00:21.731Z,13.01
2019-05-13T08:05:25.404Z,13.35
2019-05-13T08:10:28.892Z,13.62
2019-05-13T08:15:32.322Z,13.62
2019-05-13T08:20:35.747Z,13.40
2019-05-13T08:25:39.178Z,14.08
2019-05-13T08:30:43.072Z,14.32
2019-05-13T08:35:47.215Z,14.74
2019-05-13T08:40:51.802Z,14.98
2019-05-13T08:45:58.510Z,15.58
2019-05-13T08:51:03.221Z,15.77
2019-05-13T08:56:06.975Z,15.79
2019-05-13T09:01:12.404Z,16.21
2019-05-13T09:06:15.627Z,16.86
2019-05-13T09:11:19.143Z,17.25
2019-05-13T09:16:22.561Z,16.71
2019-05-13T09:21:26.057Z,16.97
2019-05-13T09:26:31.598Z,17.39
2019-05-13T09:31:34.886Z,17.25
2019-05-13T09:36:38.342Z,17.47
2019-05-13T09:41:45.452Z,16.79
2019-05-13T09:46:51.482Z,17.36
2019-05-13T09:51:54.027Z,18.49
2019-05-13T09:56:57.471Z,18.99
2019-05-13T10:02:03.171Z,19.21
2019-05-13T10:07:07.082Z,19.71
2019-05-13T10:12:12.163Z,19.82
2019-05-13T10:17:15.895Z,19.74
2019-05-13T10:22:21.333Z,19.60
2019-05-13T10:27:26.064Z,20.30
2019-05-13T10:32:32.236Z,20.40
2019-05-13T10:37:34.963Z,19.59
2019-05-13T10:42:38.475Z,20.72
2019-05-13T10:47:42.447Z,21.57
2019-05-13T10:52:45.916Z,21.96
2019-05-13T10:57:51.338Z,21.63
2019-05-13T11:02:54.932Z,21.37
2019-05-13T11:07:58.636Z,21.29
2019-05-13T11:13:06.050Z,21.29
2019-05-13T11:18:11.762Z,21.84
2019-05-13T11:23:12.755Z,22.48
2019-05-13T11:28:16.188Z,22.32
2019-05-13T11:33:22.371Z,23.04
2019-05-13T11:38:27.517Z,23.33
2019-05-13T11:43:33.132Z,23.24
2019-05-13T11:48:36.220Z,23.28
2019-05-13T11:53:41.657Z,23.73
2019-05-13T11:58:45.349Z,23.39
2019-05-13T12:03:48.770Z,22.89
2019-05-13T12:08:55.202Z,22.45
2019-05-13T12:13:57.486Z,23.47
2019-05-13T12:19:03.455Z,23.64
2019-05-13T12:24:10.334Z,23.94
2019-05-13T12:29:18.534Z,23.78
2019-05-13T12:34:16.915Z,23.67
2019-05-13T12:39:23.891Z,23.93
2019-05-13T12:44:25.659Z,24.57
2019-05-13T12:49:33.631Z,24.71
2019-05-13T12:54:37.429Z,24.27
2019-05-13T12:59:53.819Z,23.09
2019-05-13T13:05:10.560Z,23.78
2019-05-13T13:10:28.021Z,24.17
2019-05-13T13:15:41.931Z,25.04
2019-05-13T13:21:00.282Z,25.06
2019-05-13T13:26:03.061Z,24.90
2019-05-13T13:31:08.715Z,25.05
2019-05-13T13:36:15.621Z,24.80
2019-05-13T13:41:24.822Z,25.14
2019-05-13T13:46:41.277Z,24.14
2019-05-13T13:51:34.570Z,24.04
2019-05-13T13:56:38.111Z,23.79
2019-05-13T14:01:41.759Z,23.37
2019-05-13T14:11:51.553Z,22.52
2019-05-13T14:16:55.323Z,22.83
2019-05-13T14:21:58.724Z,22.96
2019-05-13T14:27:03.104Z,23.53
2019-05-13T14:32:06.755Z,24.07
2019-05-13T14:37:11.663Z,24.08
2019-05-13T14:42:15.646Z,24.14
2019-05-13T14:47:19.105Z,23.96
2019-05-13T14:52:24.273Z,23.63
2019-05-13T14:57:32.273Z,23.32
2019-05-13T15:02:37.444Z,23.18
2019-05-13T15:07:42.119Z,23.41
2019-05-13T15:12:47.489Z,23.63
2019-05-13T15:17:53.840Z,23.23
2019-05-13T15:22:57.417Z,22.40
2019-05-13T15:28:02.929Z,22.48
2019-05-13T15:33:06.176Z,23.12
2019-05-13T15:38:12.316Z,22.57
2019-05-13T15:43:14.847Z,23.06
2019-05-13T15:48:22.240Z,23.00
2019-05-13T15:53:26.132Z,22.79
2019-05-13T15:58:39.013Z,22.89
2019-05-13T16:03:36.496Z,22.66
2019-05-13T16:08:43.089Z,22.49
2019-05-13T16:13:45.200Z,22.10
2019-05-13T16:18:48.625Z,22.30
2019-05-13T16:23:52.246Z,21.77
2019-05-13T16:28:55.972Z,21.57
2019-05-13T16:34:01.555Z,21.02
2019-05-13T16:39:06.679Z,21.03
2019-05-13T16:44:11.972Z,21.37
2019-05-13T16:49:15.703Z,21.20
2019-05-13T16:54:21.787Z,20.60
2019-05-13T16:59:24.374Z,20.60
2019-05-13T17:04:27.826Z,20.06
2019-05-13T17:09:32.319Z,20.09
2019-05-13T17:14:36.003Z,19.50
2019-05-13T17:19:39.423Z,19.08
2019-05-13T17:24:43.639Z,18.53
2019-05-13T17:29:47.151Z,18.27
2019-05-13T17:34:51.558Z,18.08
2019-05-13T17:39:55.116Z,17.90
2019-05-13T17:44:58.547Z,17.60
2019-05-13T17:50:02.202Z,17.22
2019-05-13T17:55:07.524Z,17.15
2019-05-13T18:00:13.031Z,16.75
2019-05-13T18:05:18.224Z,16.68
2019-05-13T18:10:22.574Z,16.57
2019-05-13T18:15:26.175Z,16.49
2019-05-13T18:20:29.605Z,16.29
2019-05-13T18:25:33.043Z,16.24
2019-05-13T18:30:36.478Z,16.07
2019-05-13T18:35:41.884Z,15.94
2019-05-13T18:40:45.060Z,15.86
2019-05-13T18:45:48.465Z,15.66
2019-05-13T18:50:52.445Z,15.55
2019-05-13T18:55:56.004Z,15.37
2019-05-13T19:01:01.329Z,15.23
2019-05-13T19:06:05.085Z,14.92
2019-05-13T19:11:08.579Z,14.93
2019-05-13T19:16:12.082Z,14.78
2019-05-13T19:21:15.529Z,14.65
2019-05-13T19:26:18.953Z,14.59
2019-05-13T19:31:22.384Z,14.39
2019-05-13T19:36:25.816Z,14.41
2019-05-13T19:41:31.390Z,14.40
2019-05-13T19:46:34.410Z,14.13
2019-05-13T19:51:37.871Z,14.05
2019-05-13T19:56:41.334Z,13.81
2019-05-13T20:01:44.751Z,13.70
2019-05-13T20:06:48.213Z,13.65
2019-05-13T20:11:55.343Z,13.54
2019-05-13T20:16:57.728Z,13.20
2019-05-13T20:22:02.370Z,13.14
2019-05-13T20:27:06.068Z,13.04
2019-05-13T20:32:11.634Z,12.98
2019-05-13T20:37:15.103Z,12.92
2019-05-13T20:42:20.301Z,12.72
2019-05-13T20:47:23.783Z,12.79
2019-05-13T20:52:27.218Z,12.77
2019-05-13T20:57:32.358Z,12.71
2019-05-13T21:02:35.994Z,12.56
2019-05-13T21:07:41.720Z,12.16
2019-05-13T21:12:44.647Z,11.97
2019-05-13T21:17:48.195Z,11.78
2019-05-13T21:22:51.781Z,11.59
2019-05-13T21:27:55.135Z,11.58
2019-05-13T21:32:58.660Z,11.42
2019-05-13T21:38:02.126Z,11.44
2019-05-13T21:43:05.574Z,11.44
2019-05-13T21:48:10.976Z,11.33
2019-05-13T21:53:14.169Z,11.32
2019-05-13T21:58:17.601Z,11.38
2019-05-13T22:03:21.078Z,11.14
2019-05-13T22:08:24.515Z,11.04
2019-05-13T22:13:31.542Z,10.95
2019-05-13T22:18:35.234Z,10.83
2019-05-13T22:23:38.629Z,10.69
2019-05-13T22:28:42.042Z,10.65
2019-05-13T22:33:45.483Z,10.64
2019-05-13T22:38:48.919Z,10.78
2019-05-13T22:43:58.377Z,10.77
2019-05-13T22:48:58.139Z,10.63
2019-05-13T22:54:01.593Z,10.55
2019-05-13T22:59:05.113Z,10.32
2019-05-13T23:04:08.602Z,10.14
2019-05-13T23:09:12.610Z,10.20
2019-05-13T23:14:16.080Z,10.20
2019-05-13T23:19:21.534Z,10.19
2019-05-13T23:24:24.630Z,10.14
2019-05-13T23:29:28.072Z,10.17
2019-05-13T23:34:31.967Z,10.19
2019-05-13T23:39:35.618Z,10.19
2019-05-13T23:44:41.210Z,10.13
2019-05-13T23:49:44.215Z,9.98
2019-05-13T23:54:47.627Z,9.70
2019-05-13T23:59:51.266Z,9.58
